Flight Track Log - Related Links

Times and Time Zones

All times are in EDT time to prevent confusion due to time zone crossing. See the SWA378 flight status page for this flight to view local times or setup timezone preferences in your user account.


Time Position Orientation Groundspeed Altitude Reporting Facility
EDT Latitude Longitude Course Direction KTS MPH feet Rate Location/Type
Thu 01:31:56 PM 33.9167 -118.5167 231° Southwest 240 276 2,900  Level Southern California TRACON
Thu 01:32:56 PM 33.8500 -118.5167 180° South 271 312 5,100 2,162 Climbing Southern California TRACON
Thu 01:34:12 PM 33.7647 -118.5206 182° South 275 316 7,800 2,348 Climbing Los Angeles Center
Thu 01:35:14 PM 33.6839 -118.4794 157° South 294 338 10,500 2,177 Climbing Los Angeles Center
Thu 01:36:00 PM 33.6398 -118.3629 121° Southeast  Level FlightAware Approximate
Thu 01:36:16 PM 33.6739 -118.3761 97° East 313 360 12,300  Level Los Angeles Center
Thu 01:37:18 PM 33.6744 -118.2658 90° East 340 391 14,300 2,371 Climbing Los Angeles Center
Thu 01:38:20 PM 33.6725 -118.1194 91° East 370 426 17,200 2,371 Climbing Los Angeles Center
Thu 01:39:22 PM 33.6706 -117.9914 91° East 383 441 19,200 1,935 Climbing Los Angeles Center
Thu 01:40:24 PM 33.6681 -117.8572 91° East 400 460 21,200 1,742 Climbing Los Angeles Center
Thu 01:41:26 PM 33.6664 -117.7444 91° East 418 481 22,800 1,887 Climbing Los Angeles Center
Thu 01:42:28 PM 33.6625 -117.5706 91° East 435 501 25,100 1,935 Climbing Los Angeles Center
Thu 01:43:30 PM 33.6619 -117.4217 90° East 445 512 26,800 1,694 Climbing Los Angeles Center
Thu 01:44:32 PM 33.6581 -117.2394 91° East 454 522 28,600 1,488 Climbing Los Angeles Center
Thu 01:45:35 PM 33.6533 -117.0844 92° East 463 533 29,900 1,392 Climbing Los Angeles Center
Thu 01:46:37 PM 33.6497 -116.9264 92° East 472 543 31,500 1,403 Climbing Los Angeles Center
Thu 01:47:39 PM 33.6464 -116.7753 91° East 474 545 32,800 1,403 Climbing Los Angeles Center
Thu 01:48:41 PM 33.6397 -116.5867 92° East 471 542 34,400 1,065 Climbing Los Angeles Center
Thu 01:49:43 PM 33.6361 -116.4294 92° East 472 543 35,000 290 Climbing Los Angeles Center
Thu 01:50:45 PM 33.6314 -116.2719 92° East 473 544 35,000 339 Level Los Angeles Center
Thu 01:51:47 PM 33.6264 -116.1144 92° East 472 543 35,700 823 Climbing Los Angeles Center
Thu 01:52:49 PM 33.6211 -115.9583 92° East 468 539 36,700 629 Climbing Los Angeles Center
Thu 01:53:51 PM 33.6161 -115.8039 92° East 464 534 37,000 145 Climbing Los Angeles Center
Thu 01:54:53 PM 33.6108 -115.6467 92° East 469 540 37,000  Level Los Angeles Center
Thu 01:55:55 PM 33.6036 -115.4589 93° East 469 540 37,000  Level Los Angeles Center
Thu 01:56:58 PM 33.5981 -115.3028 92° East 469 540 37,000  Level Los Angeles Center
Thu 01:58:00 PM 33.5919 -115.1469 93° East 469 540 37,000  Level Los Angeles Center
Thu 01:59:02 PM 33.5856 -114.9917 93° East 468 539 37,000  Level Los Angeles Center
Thu 02:00:04 PM 33.5814 -114.8342 92° East 471 542 37,000  Level Los Angeles Center
Thu 02:01:18 PM 33.5742 -114.6767 93° East 474 545 37,000  Level Los Angeles Center
Thu 02:02:20 PM 33.5653 -114.4556 93° East 474 545 37,000  Level Los Angeles Center
Thu 02:03:21 PM 33.5597 -114.3019 92° East 478 550 37,000  Level Albuquerque Center
Thu 02:04:22 PM 33.5519 -114.1436 93° East 477 549 37,000  Level Albuquerque Center
Thu 02:05:24 PM 33.5483 -113.9850 92° East 477 549 37,000  Level Albuquerque Center
Thu 02:06:26 PM 33.5814 -113.8306 76° East 477 549 37,000  Level Albuquerque Center
Thu 02:07:28 PM 33.6189 -113.6789 73° East 476 548 37,000  Level Albuquerque Center
Thu 02:08:30 PM 33.6550 -113.5275 74° East 473 544 37,000  Level Albuquerque Center
Thu 02:09:32 PM 33.6978 -113.3450 74° East 473 544 37,000  Level Albuquerque Center
Thu 02:10:34 PM 33.7342 -113.1922 74° East 474 545 37,000  Level Albuquerque Center
Thu 02:11:36 PM 33.7689 -113.0419 74° East 471 542 37,000  Level Albuquerque Center
Thu 02:12:38 PM 33.8097 -112.8694 74° East 475 547 37,000  Level Albuquerque Center
Thu 02:13:40 PM 33.8439 -112.7181 75° East 471 542 37,000  Level Albuquerque Center
Thu 02:14:41 PM 33.8817 -112.5531 75° East 474 545 37,000  Level Albuquerque Center
Thu 02:15:43 PM 33.9167 -112.4011 74° East 472 543 37,000  Level Albuquerque Center
Thu 02:16:45 PM 33.9519 -112.2467 75° East 477 549 37,000  Level Albuquerque Center
Thu 02:17:47 PM 33.9889 -112.0803 75° East 478 550 37,000  Level Albuquerque Center
Thu 02:18:49 PM 34.0236 -111.9261 75° East 476 548 37,000  Level Albuquerque Center
Thu 02:19:51 PM 34.0644 -111.7744 72° East 480 552 37,000  Level Albuquerque Center
Thu 02:20:52 PM 34.1333 -111.6297 60° Northeast 464 534 37,000  Level Albuquerque Center
Thu 02:21:54 PM 34.1975 -111.4953 60° Northeast 463 533 37,000  Level Albuquerque Center
Thu 02:22:56 PM 34.2481 -111.3786 62° Northeast 460 529 37,000  Level Albuquerque Center
Thu 02:23:57 PM 34.2750 -111.1861 80° East 475 547 37,000  Level Albuquerque Center
Thu 02:24:59 PM 34.2981 -111.0219 80° East 478 550 37,000  Level Albuquerque Center
Thu 02:26:01 PM 34.3186 -110.8619 81° East 483 556 37,000  Level Albuquerque Center
Thu 02:27:02 PM 34.3386 -110.7125 81° East 481 554 37,000  Level Albuquerque Center
Thu 02:28:04 PM 34.3622 -110.5331 81° East 482 555 37,000  Level Albuquerque Center
Thu 02:29:06 PM 34.3822 -110.3778 81° East 487 560 37,000  Level Albuquerque Center
Thu 02:30:07 PM 34.4064 -110.1983 81° East 486 559 37,000  Level Albuquerque Center
Thu 02:31:09 PM 34.4258 -110.0444 81° East 485 558 37,000  Level Albuquerque Center
Thu 02:32:11 PM 34.4492 -109.8631 81° East 487 560 37,000  Level Albuquerque Center
Thu 02:33:13 PM 34.4681 -109.7069 82° East 489 563 37,000  Level Albuquerque Center
Thu 02:34:14 PM 34.4903 -109.5261 81° East 488 562 37,000  Level Albuquerque Center
Thu 02:35:16 PM 34.5092 -109.3722 81° East 486 559 37,000  Level Albuquerque Center
Thu 02:36:18 PM 34.5275 -109.2197 82° East 482 555 37,000  Level Albuquerque Center
Thu 02:37:20 PM 34.5492 -109.0419 82° East 480 552 37,000  Level Albuquerque Center
Thu 02:38:21 PM 34.5672 -108.8903 82° East 477 549 37,000  Level Albuquerque Center
Thu 02:39:23 PM 34.5889 -108.7106 82° East 480 552 37,000  Level Albuquerque Center
Thu 02:40:25 PM 34.6058 -108.5561 82° East 483 556 37,000  Level Albuquerque Center
Thu 02:41:27 PM 34.6283 -108.3742 81° East 486 559 37,000  Level Albuquerque Center
Thu 02:42:28 PM 34.6458 -108.2119 82° East 487 560 37,000  Level Albuquerque Center
Thu 02:43:30 PM 34.6628 -108.0500 83° East 485 558 37,000  Level Albuquerque Center
Thu 02:44:32 PM 34.6825 -107.8822 82° East 488 562 37,000  Level Albuquerque Center
Thu 02:45:34 PM 34.6983 -107.7258 83° East 485 558 37,000  Level Albuquerque Center
Thu 02:46:35 PM 34.7161 -107.5650 82° East 482 555 37,000  Level Albuquerque Center
Thu 02:47:37 PM 34.7317 -107.4044 83° East 481 554 37,000  Level Albuquerque Center
Thu 02:48:39 PM 34.7519 -107.2114 83° East 482 555 37,000  Level Albuquerque Center
Thu 02:49:41 PM 34.7683 -107.0492 83° East 487 560 37,000  Level Albuquerque Center
Thu 02:50:42 PM 34.7844 -106.8872 83° East 488 562 37,000  Level Albuquerque Center
Thu 02:51:44 PM 34.8003 -106.7239 83° East 492 566 37,000  Level Albuquerque Center
Thu 02:52:46 PM 34.8158 -106.5611 83° East 493 567 37,000  Level Albuquerque Center
Thu 02:53:48 PM 34.8350 -106.3661 83° East 488 562 37,000  Level Albuquerque Center
Thu 02:54:50 PM 34.8511 -106.2022 83° East 490 564 37,000  Level Albuquerque Center
Thu 02:55:51 PM 34.8644 -106.0372 84° East 493 567 37,000  Level Albuquerque Center
Thu 02:56:53 PM 34.8811 -105.8586 83° East 493 567 37,000  Level Albuquerque Center
Thu 02:57:55 PM 34.8975 -105.6906 83° East 495 570 37,000  Level Albuquerque Center
Thu 02:58:57 PM 34.9131 -105.5217 84° East 498 573 37,000  Level Albuquerque Center
Thu 03:00:00 PM 34.9281 -105.3542 84° East 494 568 37,000  Level Albuquerque Center
Thu 03:01:02 PM 34.9453 -105.1558 84° East 499 574 37,000  Level Albuquerque Center
Thu 03:02:04 PM 34.9603 -104.9850 84° East 502 578 37,000  Level Albuquerque Center
Thu 03:03:05 PM 34.9750 -104.8144 84° East 504 580 37,000  Level Albuquerque Center
Thu 03:04:07 PM 34.9886 -104.6439 84° East 504 580 37,000  Level Albuquerque Center
Thu 03:05:09 PM 35.0031 -104.4744 84° East 501 577 37,000  Level Albuquerque Center
Thu 03:06:11 PM 35.0153 -104.3056 85° East 500 575 37,000  Level Albuquerque Center
Thu 03:07:13 PM 35.0300 -104.1369 84° East 503 579 37,000  Level Albuquerque Center
Thu 03:08:15 PM 35.0450 -103.9408 85° East 501 577 37,000  Level Albuquerque Center
Thu 03:09:16 PM 35.0581 -103.7722 85° East 499 574 37,000  Level Albuquerque Center
Thu 03:10:18 PM 35.0706 -103.6042 85° East 496 571 37,000  Level Albuquerque Center
Thu 03:11:20 PM 35.0822 -103.4353 85° East 496 571 37,000  Level Albuquerque Center
Thu 03:12:22 PM 35.0950 -103.2683 85° East 493 567 37,000  Level Albuquerque Center
Thu 03:13:24 PM 35.1067 -103.1006 85° East 493 567 37,000  Level Albuquerque Center
Thu 03:14:26 PM 35.1186 -102.9211 85° East 494 568 37,000  Level Albuquerque Center
Thu 03:15:27 PM 35.1294 -102.7525 85° East 498 573 37,000  Level Albuquerque Center
Thu 03:16:29 PM 35.1403 -102.5831 85° East 501 577 37,000  Level Albuquerque Center
Thu 03:17:31 PM 35.1508 -102.4125 86° East 504 580 37,000  Level Albuquerque Center
Thu 03:18:33 PM 35.1675 -102.2094 84° East 503 579 37,000  Level Albuquerque Center
Thu 03:19:35 PM 35.1936 -102.0408 79° East 504 580 37,000  Level Albuquerque Center
Thu 03:20:37 PM 35.2183 -101.8797 79° East 502 578 37,000  Level Albuquerque Center
Thu 03:21:39 PM 35.2453 -101.7100 79° East 503 579 37,000  Level Albuquerque Center
Thu 03:22:40 PM 35.2714 -101.5394 79° East 506 582 37,000  Level Albuquerque Center
Thu 03:23:43 PM 35.3014 -101.3383 80° East 509 586 37,000  Level Albuquerque Center
Thu 03:24:44 PM 35.3022 -101.1747 90° East 512 589 37,000  Level Albuquerque Center
Thu 03:25:46 PM 35.3058 -101.0019 88° East 510 587 37,000  Level Albuquerque Center
Thu 03:26:48 PM 35.3086 -100.8281 89° East 511 588 37,000  Level Albuquerque Center
Thu 03:27:49 PM 35.3111 -100.6558 89° East 509 586 37,000  Level Albuquerque Center
Thu 03:28:51 PM 35.3147 -100.4500 89° East 507 583 37,000  Level Albuquerque Center
Thu 03:29:53 PM 35.3161 -100.2789 89° East 505 581 37,000  Level Albuquerque Center
Thu 03:30:55 PM 35.3189 -100.1081 89° East 504 580 37,000  Level Albuquerque Center
Thu 03:31:57 PM 35.3194 -99.9394 90° East 499 574 37,000  Level Albuquerque Center
Thu 03:32:59 PM 35.3222 -99.7714 89° East 496 571 37,000  Level Albuquerque Center
Thu 03:34:01 PM 35.3239 -99.6039 89° East 494 568 37,000  Level Albuquerque Center
Thu 03:35:02 PM 35.3247 -99.4036 90° East 491 565 37,000  Level Albuquerque Center
Thu 03:36:04 PM 35.3264 -99.2367 89° East 493 567 37,000  Level Albuquerque Center
Thu 03:37:06 PM 35.3272 -99.0683 90° East 494 568 37,000  Level Albuquerque Center
Thu 03:38:08 PM 35.3272 -98.9011 90° East 492 566 37,000  Level Albuquerque Center
Thu 03:39:10 PM 35.3272 -98.7347 90° East 491 565 37,000  Level Albuquerque Center
Thu 03:40:15 PM 35.3258 -98.5533 90° East 493 567 37,000  Level Fort Worth Center
Thu 03:41:15 PM 35.3253 -98.3856 90° East 493 567 37,000  Level Fort Worth Center
Thu 03:42:15 PM 35.3244 -98.2203 90° East 493 567 37,000  Level Fort Worth Center
Thu 03:43:15 PM 35.3253 -98.0522 90° East 493 567 37,000  Level Fort Worth Center
Thu 03:44:15 PM 35.3239 -97.8894 91° East 493 567 37,000  Level Fort Worth Center
Thu 03:45:15 PM 35.3225 -97.7214 91° East 493 567 37,000  Level Fort Worth Center
Thu 03:46:15 PM 35.3186 -97.5586 92° East 488 562 37,000  Level Fort Worth Center
Thu 03:47:15 PM 35.3144 -97.3753 92° East 488 562 37,000  Level Fort Worth Center
Thu 03:48:15 PM 35.3142 -97.2000 90° East 494 568 37,000  Level Fort Worth Center
Thu 03:49:15 PM 35.3139 -97.0369 90° East 494 568 37,000 400 Level Fort Worth Center
Thu 03:50:15 PM 35.3111 -96.8742 91° East 488 562 37,800 950 Climbing Fort Worth Center
Thu 03:51:15 PM 35.3083 -96.7114 91° East 481 554 38,900 600 Climbing Fort Worth Center
Thu 03:52:15 PM 35.3053 -96.5486 91° East 476 548 39,000 50 Climbing Fort Worth Center
Thu 03:53:15 PM 35.3039 -96.3858 91° East 476 548 39,000  Level Fort Worth Center
Thu 03:54:15 PM 35.2983 -96.2206 92° East 476 548 39,000  Level Fort Worth Center
Thu 03:55:15 PM 35.2967 -96.0578 91° East 476 548 39,000  Level Fort Worth Center
Thu 03:56:15 PM 35.2906 -95.8900 93° East 476 548 39,000  Level Fort Worth Center
Thu 03:57:15 PM 35.2906 -95.7297 90° East 476 548 39,000  Level Fort Worth Center
Thu 03:58:15 PM 35.2864 -95.5647 92° East 476 548 39,000  Level Fort Worth Center
Thu 03:59:32 PM 35.2800 -95.3678 92° East 476 548 39,000  Level Memphis Center
Thu 04:00:32 PM 35.2761 -95.2022 92° East 482 555 39,000  Level Memphis Center
Thu 04:01:32 PM 35.2703 -95.0339 92° East 482 555 39,000  Level Memphis Center
Thu 04:02:32 PM 35.2656 -94.8733 92° East 482 555 39,000  Level Memphis Center
Thu 04:03:32 PM 35.2592 -94.7053 93° East 482 555 39,000  Level Memphis Center
Thu 04:04:32 PM 35.2550 -94.5169 91° East 488 562 39,000  Level Memphis Center
Thu 04:05:32 PM 35.2478 -94.3564 93° East 488 562 39,000  Level Memphis Center
Thu 04:06:32 PM 35.2428 -94.1908 92° East 483 556 39,000  Level Memphis Center
Thu 04:07:32 PM 35.2372 -94.0256 92° East 483 556 39,000  Level Memphis Center
Thu 04:08:32 PM 35.2292 -93.8650 93° East 483 556 39,000  Level Memphis Center
Thu 04:09:32 PM 35.2233 -93.7019 92° East 478 550 39,000  Level Memphis Center
Thu 04:10:32 PM 35.2192 -93.5392 92° East 478 550 39,000  Level Memphis Center
Thu 04:11:32 PM 35.2108 -93.3789 94° East 478 550 39,000  Level Memphis Center
Thu 04:12:32 PM 35.2042 -93.2211 93° East 478 550 39,000  Level Memphis Center
Thu 04:13:32 PM 35.1972 -93.0581 93° East 478 550 39,000  Level Memphis Center
Thu 04:14:32 PM 35.1881 -92.8953 94° East 478 550 39,000  Level Memphis Center
Thu 04:15:32 PM 35.1808 -92.7325 93° East 478 550 39,000  Level Memphis Center
Thu 04:16:32 PM 35.1733 -92.5822 93° East 482 555 39,000  Level Memphis Center
Thu 04:17:32 PM 35.1656 -92.4247 93° East 482 555 39,000  Level Memphis Center
Thu 04:18:32 PM 35.1556 -92.2594 94° East 476 548 39,000  Level Memphis Center
Thu 04:19:32 PM 35.1475 -92.0992 93° East 481 554 39,000  Level Memphis Center
Thu 04:20:32 PM 35.1372 -91.9414 95° East 481 554 39,000  Level Memphis Center
Thu 04:21:32 PM 35.1308 -91.7789 93° East 481 554 39,000  Level Memphis Center
Thu 04:22:32 PM 35.1219 -91.6189 94° East 476 548 39,000  Level Memphis Center
Thu 04:23:32 PM 35.1108 -91.4639 95° East 476 548 39,000  Level Memphis Center
Thu 04:24:32 PM 35.1061 -91.2936 92° East 459 528 39,000  Level Memphis Center
Thu 04:25:32 PM 35.0967 -91.1389 94° East 454 522 39,000  Level Memphis Center
Thu 04:26:32 PM 35.0850 -90.9839 95° East 459 528 39,000  Level Memphis Center
Thu 04:27:32 PM 35.0753 -90.8289 94° East 464 534 39,000  Level Memphis Center
Thu 04:28:32 PM 35.0653 -90.6817 95° East 450 518 39,000  Level Memphis Center
Thu 04:29:32 PM 35.0553 -90.5472 95° East 444 511 39,000  Level Memphis Center
Thu 04:30:32 PM 35.0469 -90.3978 94° East 438 504 39,000  Level Memphis Center
Thu 04:31:32 PM 35.0344 -90.2481 96° East 444 511 39,000  Level Memphis Center
Thu 04:32:32 PM 35.0258 -90.1008 94° East 444 511 39,000  Level Memphis Center
Thu 04:33:32 PM 35.0150 -89.9514 95° East 444 511 39,000  Level Memphis Center
Thu 04:34:32 PM 34.9914 -89.7867 100° East 444 511 39,000  Level Memphis Center
Thu 04:35:32 PM 34.9697 -89.6297 100° East 459 528 39,000  Level Memphis Center
Thu 04:36:32 PM 34.9436 -89.4831 102° East 453 521 39,000  Level Memphis Center
Thu 04:37:32 PM 34.9197 -89.3339 101° East 446 513 39,000  Level Memphis Center
Thu 04:38:32 PM 34.8997 -89.2050 101° East 446 513 39,000  Level Memphis Center
Thu 04:39:32 PM 34.8772 -89.0533 100° East 446 513 39,000 -333 Level Memphis Center
Thu 04:41:00 PM 34.8426 -88.8297 101° East  Level FlightAware Approximate
Thu 04:44:32 PM 34.7586 -88.2969 101° East 441 507 37,000  Level Memphis Center
Thu 04:46:00 PM 34.7000 -88.0812 108° East  Level Estimated
Thu 04:46:32 PM 34.7092 -87.9847 109° East 472 543 35,500  Level Memphis Center
Thu 04:47:32 PM 34.6853 -87.8314 101° East 466 536 34,700 -950 Descending Memphis Center
Thu 04:48:00 PM 34.6719 -87.7648 101° East  Level FlightAware Approximate
Thu 04:48:32 PM 34.6569 -87.6758 102° East 466 536 33,600  Level Memphis Center
Thu 04:49:00 PM 34.6467 -87.6131 101° East  Level FlightAware Approximate
Thu 04:49:32 PM 34.6369 -87.5300 99° East 456 525 33,000  Level Memphis Center
Thu 04:51:01 PM 34.5961 -87.3039 102° East 455 524 33,000  Level Atlanta Center
Thu 04:52:01 PM 34.5667 -87.1542 103° East 455 524 33,000  Level Atlanta Center
Thu 04:53:00 PM 34.4151 -87.0556 108° East  Level Estimated
Thu 04:53:01 PM 34.5372 -86.9992 103° East 455 524 33,000  Level Atlanta Center
Thu 04:54:00 PM 34.3737 -86.9097 109° East  Level Estimated
Thu 04:54:01 PM 34.5072 -86.8469 103° East 455 524 33,000  Level Atlanta Center
Thu 04:55:01 PM 34.4753 -86.6972 104° East 455 524 32,500 -850 Descending Atlanta Center
Thu 04:56:01 PM 34.4447 -86.5628 105° East 455 524 31,300 -1,400 Descending Atlanta Center
Thu 04:57:01 PM 34.4100 -86.4106 105° East 460 529 29,700 -1,550 Descending Atlanta Center
Thu 04:58:01 PM 34.3775 -86.2611 105° East 460 529 28,200 -1,550 Descending Atlanta Center
Thu 04:59:01 PM 34.3425 -86.1092 106° East 460 529 26,600 -1,400 Descending Atlanta Center
Thu 05:00:01 PM 34.3094 -85.9653 106° East 453 521 25,400 -1,150 Descending Atlanta Center
Thu 05:01:01 PM 34.2800 -85.8311 105° East 431 496 24,300 -1,100 Descending Atlanta Center
Thu 05:02:01 PM 34.2464 -85.6922 106° East 404 465 23,200 -1,550 Descending Atlanta Center
Thu 05:03:01 PM 34.2169 -85.5636 105° East 398 458 21,200 -2,000 Descending Atlanta Center
Thu 05:04:01 PM 34.1869 -85.4425 107° East 386 444 19,200 -1,950 Descending Atlanta Center
Thu 05:05:01 PM 34.1611 -85.3242 105° East 375 432 17,300 -2,050 Descending Atlanta Center
Thu 05:06:01 PM 34.1331 -85.2083 106° East 363 418 15,100 -2,000 Descending Atlanta Center
Thu 05:07:01 PM 34.1069 -85.0975 106° East 352 405 13,300 -1,050 Descending Atlanta Center
Thu 05:08:01 PM 34.0722 -85.0019 114° Southeast 326 375 13,000 -1,150 Descending Atlanta Center
Thu 05:09:01 PM 34.0186 -84.9311 132° Southeast 296 341 11,000 -1,950 Descending Atlanta Center
Thu 05:10:01 PM 33.9628 -84.8628 135° Southeast 283 326 9,100 -1,000 Descending Atlanta Center
Thu 05:11:01 PM 33.9003 -84.8247 153° Southeast 262 302 9,000 -900 Descending Atlanta Center
Thu 05:12:01 PM 33.8275 -84.8039 167° South 262 302 7,300 -1,700 Descending Atlanta Center
Thu 05:13:01 PM 33.7544 -84.7883 170° South 272 313 5,600 -1,600 Descending Atlanta Center
Thu 05:14:01 PM 33.6897 -84.7678 165° South 260 299 4,100 -1,263 Descending Atlanta Center
Thu 05:14:17 PM 33.6833 -84.7500 113° Southeast 243 280 4,000 -857 Descending Atlanta TRACON
Thu 05:15:11 PM 33.6500 -84.7000 129° Southeast 220 253 3,100 -526 Descending Atlanta TRACON
Thu 05:16:11 PM 33.6500 -84.6333 90° East 171 197 3,000 -50 Descending Atlanta TRACON
Thu 05:17:11 PM 33.6500 -84.5833 90° East 163 188 3,000 -250 Level Atlanta TRACON
Thu 05:18:11 PM 33.6500 -84.5333 90° East 142 163 2,500 -600 Descending Atlanta TRACON
Thu 05:19:11 PM 33.6500 -84.4833 90° East 133 153 1,800 -684 Descending Atlanta TRACON
Thu 05:20:05 PM 33.6500 -84.4500 90° East 123 142 1,200 -667 Descending Atlanta TRACON
Thu 05:22:00 PM 33.6367 -84.4279 North  Level Estimated

Login

Don't have an account? Register now (free) for customized features, flight alerts, and more!